21D

Lake Elmo Airport

St Paul, Minnesota, USA
METAR K21D 151755Z AUTO 18009KT 10SM 03/M03 A3013 RMK AO2
Observed Flight Rules
Dec-15 @ 17:55 UTC (31 minutes ago)
Wind Visibility
180° at 9 knots 10 miles
Temperatures Readings
Current 3°C / 37°F
Dewpoint -3°C / 27°F
Humidity 65%
Altimeter 30.13" Hg
Pressure 1020 hPa
Elevation 285
METAR K21D 151755Z AUTO 18009KT 10SM 03/M03 A3013 RMK AO2
Observed Flight Rules
Dec-15 @ 17:55 UTC
(31 minutes ago)
Wind Visibility
180° at 9 knots 10 miles
Temperature Dewpoint
3°C / 37°F -3°C / 27°F
Humidity Altimeter Pressure
65% 30.13" Hg 1020 hPa